createdAt,value
2019-05-29T00:00:12.971Z,61.00
2019-05-29T00:02:41.060Z,61.20
2019-05-29T00:05:10.242Z,63.18
2019-05-29T00:07:39.127Z,65.00
2019-05-29T00:10:08.959Z,62.45
2019-05-29T00:12:37.654Z,64.10
2019-05-29T00:15:06.348Z,60.36
2019-05-29T00:17:34.628Z,61.18
2019-05-29T00:20:02.953Z,58.49
2019-05-29T00:22:31.266Z,61.66
2019-05-29T00:24:59.577Z,58.33
2019-05-29T00:27:27.864Z,66.27
2019-05-29T00:29:56.254Z,62.78
2019-05-29T00:32:24.571Z,64.22
2019-05-29T00:34:53.278Z,66.33
2019-05-29T00:37:21.965Z,62.80
2019-05-29T00:39:50.659Z,64.90
2019-05-29T00:42:18.992Z,63.97
2019-05-29T00:44:47.721Z,65.69
2019-05-29T00:47:16.127Z,58.96
2019-05-29T00:49:44.418Z,61.15
2019-05-29T00:52:14.186Z,58.78
2019-05-29T00:54:43.712Z,62.97
2019-05-29T00:57:12.920Z,60.86
2019-05-29T00:59:41.545Z,61.11
2019-05-29T01:02:11.797Z,62.04
2019-05-29T01:04:40.712Z,59.78
2019-05-29T01:07:10.172Z,62.93
2019-05-29T01:09:39.014Z,62.84
2019-05-29T01:12:07.601Z,63.18
2019-05-29T01:14:49.216Z,63.63
2019-05-29T01:17:06.099Z,63.38
2019-05-29T01:19:35.102Z,61.65
2019-05-29T01:22:03.522Z,60.16
2019-05-29T01:24:31.925Z,61.98
2019-05-29T01:27:00.355Z,59.29
2019-05-29T01:29:29.039Z,55.93
2019-05-29T01:31:57.345Z,56.25
2019-05-29T01:34:25.668Z,56.60
2019-05-29T01:36:53.994Z,58.92
2019-05-29T01:39:23.407Z,58.47
2019-05-29T01:41:52.380Z,62.52
2019-05-29T01:44:21.444Z,61.64
2019-05-29T01:46:49.972Z,59.60
2019-05-29T01:49:19.506Z,61.42
2019-05-29T01:51:47.967Z,63.63
2019-05-29T01:54:17.482Z,62.26
2019-05-29T01:56:45.972Z,58.88
2019-05-29T01:59:15.619Z,55.05
2019-05-29T02:01:44.259Z,55.25
2019-05-29T02:04:12.565Z,61.85
2019-05-29T02:06:40.877Z,55.95
2019-05-29T02:09:09.186Z,53.48
2019-05-29T02:11:37.877Z,58.27
2019-05-29T02:14:06.251Z,56.65
2019-05-29T02:16:34.848Z,58.97
2019-05-29T02:19:03.532Z,57.00
2019-05-29T02:21:31.908Z,59.51
2019-05-29T02:24:00.608Z,59.24
2019-05-29T02:26:28.979Z,58.28
2019-05-29T02:28:57.302Z,58.38
2019-05-29T02:31:27.032Z,59.04
2019-05-29T02:33:55.981Z,58.69
2019-05-29T02:36:26.616Z,58.78
2019-05-29T02:38:55.003Z,57.37
2019-05-29T02:41:24.308Z,56.19
2019-05-29T02:43:53.408Z,58.16
2019-05-29T02:46:23.834Z,60.25
2019-05-29T02:48:53.027Z,56.94
2019-05-29T02:51:22.082Z,61.32
2019-05-29T02:53:50.679Z,56.76
2019-05-29T02:56:20.423Z,56.68
2019-05-29T02:58:49.016Z,59.06
2019-05-29T03:01:17.306Z,57.62
2019-05-29T03:03:45.975Z,56.90
2019-05-29T03:06:14.678Z,58.17
2019-05-29T03:08:43.269Z,63.25
2019-05-29T03:11:11.965Z,60.78
2019-05-29T03:13:40.233Z,61.07
2019-05-29T03:16:11.978Z,59.84
2019-05-29T03:18:38.747Z,59.51
2019-05-29T03:21:07.064Z,60.70
2019-05-29T03:23:36.146Z,60.49
2019-05-29T03:26:05.212Z,60.06
2019-05-29T03:28:35.110Z,62.14
2019-05-29T03:31:03.795Z,59.78
2019-05-29T03:33:43.793Z,60.86
2019-05-29T03:36:02.623Z,63.04
2019-05-29T03:38:32.681Z,61.93
2019-05-29T03:41:01.353Z,64.47
2019-05-29T03:43:31.113Z,64.60
2019-05-29T03:45:59.686Z,59.75
2019-05-29T03:48:29.635Z,61.06
2019-05-29T03:50:58.656Z,61.78
2019-05-29T03:53:27.166Z,58.73
2019-05-29T03:55:55.656Z,61.55
2019-05-29T03:58:24.301Z,59.60
2019-05-29T04:00:52.994Z,60.20
2019-05-29T04:03:21.302Z,58.97
2019-05-29T04:05:49.961Z,60.08
2019-05-29T04:08:18.251Z,63.77
2019-05-29T04:10:46.577Z,59.94
2019-05-29T04:13:14.945Z,66.51
2019-05-29T04:15:43.400Z,64.09
2019-05-29T04:18:12.071Z,64.43
2019-05-29T04:20:40.760Z,66.20
2019-05-29T04:23:09.133Z,64.67
2019-05-29T04:25:42.279Z,64.32
2019-05-29T04:28:08.930Z,64.34
2019-05-29T04:30:39.079Z,64.65
2019-05-29T04:33:07.417Z,63.82
2019-05-29T04:35:36.822Z,60.53
2019-05-29T04:38:05.591Z,64.04
2019-05-29T04:40:35.052Z,65.80
2019-05-29T04:43:04.492Z,69.23
2019-05-29T04:45:33.490Z,68.22
2019-05-29T04:48:02.864Z,60.29
2019-05-29T04:50:31.923Z,64.75
2019-05-29T04:53:01.288Z,67.29
2019-05-29T04:55:30.698Z,63.93
2019-05-29T04:57:59.392Z,63.12
2019-05-29T05:00:28.926Z,65.80
2019-05-29T05:02:57.378Z,65.62
2019-05-29T05:05:25.951Z,64.08
2019-05-29T05:07:54.560Z,65.86
2019-05-29T05:10:41.211Z,62.98
2019-05-29T05:13:09.938Z,60.78
2019-05-29T05:15:39.972Z,60.66
2019-05-29T05:18:09.080Z,63.38
2019-05-29T05:20:38.381Z,62.85
2019-05-29T05:23:06.818Z,62.92
2019-05-29T05:25:36.345Z,63.76
2019-05-29T05:28:06.189Z,65.84
2019-05-29T05:30:34.567Z,65.56
2019-05-29T05:33:02.999Z,61.22
2019-05-29T05:35:32.585Z,63.30
2019-05-29T05:38:01.022Z,61.46
2019-05-29T05:40:30.651Z,64.05
2019-05-29T05:42:59.459Z,66.10
2019-05-29T05:45:27.785Z,65.15
2019-05-29T05:47:58.022Z,62.60
2019-05-29T05:50:26.413Z,62.55
2019-05-29T05:52:54.722Z,66.46
2019-05-29T05:55:23.403Z,62.96
2019-05-29T05:57:52.092Z,93.90
2019-05-29T06:00:35.886Z,39.64
2019-05-29T06:03:05.365Z,35.58
2019-05-29T06:05:34.017Z,38.38
2019-05-29T06:08:02.634Z,40.70
2019-05-29T06:10:32.013Z,43.27
2019-05-29T06:13:00.521Z,43.17
2019-05-29T06:15:29.106Z,43.49
2019-05-29T06:18:19.493Z,40.20
2019-05-29T06:20:27.813Z,39.36
2019-05-29T06:22:56.502Z,41.23
2019-05-29T06:25:26.043Z,41.25
2019-05-29T06:27:54.510Z,37.89
2019-05-29T06:30:23.438Z,39.70
2019-05-29T06:32:51.858Z,38.46
2019-05-29T06:35:20.304Z,41.36
2019-05-29T06:37:48.683Z,43.59
2019-05-29T06:40:26.065Z,41.26
2019-05-29T06:42:54.358Z,42.72
2019-05-29T06:45:25.851Z,41.09
2019-05-29T06:47:54.570Z,49.46
2019-05-29T06:50:22.944Z,50.22
2019-05-29T06:52:51.619Z,49.28
2019-05-29T06:55:20.016Z,47.89
2019-05-29T06:57:48.396Z,51.19
2019-05-29T07:00:33.998Z,49.28
2019-05-29T07:02:46.969Z,49.28
2019-05-29T07:05:15.395Z,49.11
2019-05-29T07:07:44.484Z,47.91
2019-05-29T07:10:13.665Z,46.96
2019-05-29T07:12:42.449Z,49.80
2019-05-29T07:15:11.969Z,51.01
2019-05-29T07:17:40.650Z,49.47
2019-05-29T07:20:09.800Z,47.13
2019-05-29T07:22:38.916Z,46.53
2019-05-29T07:25:07.871Z,49.17
2019-05-29T07:27:36.860Z,45.83
2019-05-29T07:30:06.989Z,50.15
2019-05-29T07:32:35.278Z,48.20
2019-05-29T07:35:04.736Z,48.35
2019-05-29T07:37:33.687Z,49.23
2019-05-29T07:40:02.055Z,48.31
2019-05-29T07:42:30.427Z,48.20
2019-05-29T07:44:58.747Z,48.14
2019-05-29T07:47:27.124Z,48.53
2019-05-29T07:49:55.760Z,49.32
2019-05-29T07:52:24.447Z,50.93
2019-05-29T07:54:52.837Z,48.59
2019-05-29T07:57:21.522Z,50.06
2019-05-29T07:59:50.211Z,46.20
2019-05-29T08:02:18.505Z,49.32
2019-05-29T08:04:47.289Z,50.58
2019-05-29T08:07:15.628Z,52.83
2019-05-29T08:09:43.927Z,49.14
2019-05-29T08:12:13.197Z,47.45
2019-05-29T08:14:41.858Z,52.17
2019-05-29T08:17:10.625Z,48.08
2019-05-29T08:19:53.540Z,50.85
2019-05-29T08:22:09.038Z,45.09
2019-05-29T08:24:37.718Z,41.50
2019-05-29T08:27:06.114Z,40.70
2019-05-29T08:29:34.413Z,41.15
2019-05-29T08:32:02.818Z,42.78
2019-05-29T08:34:31.111Z,45.50
2019-05-29T08:37:06.653Z,47.20
2019-05-29T08:39:36.040Z,46.46
2019-05-29T08:42:21.201Z,46.66
2019-05-29T08:44:29.961Z,48.74
2019-05-29T08:47:09.684Z,46.36
2019-05-29T08:49:28.387Z,48.69
2019-05-29T08:52:10.542Z,49.05
2019-05-29T08:54:27.105Z,50.02
2019-05-29T08:56:55.475Z,48.20
2019-05-29T08:59:23.777Z,48.66
2019-05-29T09:01:53.790Z,51.18
2019-05-29T09:04:22.154Z,51.46
2019-05-29T09:06:51.187Z,50.20
2019-05-29T09:09:19.564Z,51.06
2019-05-29T09:11:49.880Z,52.16
2019-05-29T09:14:18.412Z,50.02
2019-05-29T09:16:46.739Z,51.01
2019-05-29T09:19:16.244Z,47.79
2019-05-29T09:21:44.819Z,49.56
2019-05-29T09:24:14.717Z,50.17
2019-05-29T09:26:46.422Z,48.72
2019-05-29T09:29:16.764Z,48.24
2019-05-29T09:31:43.813Z,47.60
2019-05-29T09:34:12.135Z,48.83
2019-05-29T09:36:40.478Z,47.87
2019-05-29T09:39:09.402Z,46.45
2019-05-29T09:41:37.894Z,47.20
2019-05-29T09:44:06.819Z,46.80
2019-05-29T09:46:35.224Z,46.09
2019-05-29T09:49:03.598Z,49.03
2019-05-29T09:51:31.914Z,47.15
2019-05-29T09:54:01.427Z,48.53
2019-05-29T09:56:30.598Z,51.32
2019-05-29T09:59:00.381Z,44.82
2019-05-29T10:01:29.815Z,46.29
2019-05-29T10:04:00.040Z,46.06
2019-05-29T10:06:28.914Z,47.89
2019-05-29T10:08:58.029Z,45.95
2019-05-29T10:11:26.718Z,49.00
2019-05-29T10:13:56.519Z,47.50
2019-05-29T10:16:25.205Z,49.27
2019-05-29T10:18:54.270Z,50.76
2019-05-29T10:21:38.630Z,50.19
2019-05-29T10:23:54.758Z,48.83
2019-05-29T10:26:23.776Z,47.89
2019-05-29T10:31:02.892Z,47.57
2019-05-29T10:31:22.457Z,42.86
2019-05-29T10:33:52.327Z,42.89
2019-05-29T10:36:21.414Z,49.04
2019-05-29T10:38:50.751Z,47.80
2019-05-29T10:41:19.454Z,45.90
2019-05-29T10:43:49.076Z,45.33
2019-05-29T10:46:17.465Z,41.62
2019-05-29T10:48:49.375Z,43.42
2019-05-29T10:51:16.054Z,43.44
2019-05-29T10:53:44.353Z,46.68
2019-05-29T10:56:12.689Z,44.15
2019-05-29T10:58:49.686Z,43.32
2019-05-29T11:01:11.782Z,45.04
2019-05-29T11:03:40.179Z,44.11
2019-05-29T11:06:08.492Z,45.11
2019-05-29T11:08:36.795Z,45.67
2019-05-29T11:11:05.132Z,46.31
2019-05-29T11:13:33.445Z,43.94
2019-05-29T11:16:01.739Z,44.42
2019-05-29T11:18:30.126Z,46.18
2019-05-29T11:20:58.800Z,45.03
2019-05-29T11:23:27.338Z,45.08
2019-05-29T11:25:56.052Z,44.01
2019-05-29T11:28:24.663Z,43.00
2019-05-29T11:30:53.727Z,46.37
2019-05-29T11:33:23.012Z,45.27
2019-05-29T11:36:06.361Z,44.69
2019-05-29T11:38:22.596Z,46.42
2019-05-29T11:41:05.334Z,45.71
2019-05-29T11:43:21.183Z,45.56
2019-05-29T11:45:51.107Z,44.24
2019-05-29T11:48:19.591Z,44.35
2019-05-29T11:50:47.891Z,41.84
2019-05-29T11:53:16.219Z,41.16
2019-05-29T11:55:44.527Z,42.14
2019-05-29T11:58:30.028Z,38.94
2019-05-29T12:00:42.875Z,41.78
2019-05-29T12:03:11.641Z,44.06
2019-05-29T12:05:42.157Z,47.88
2019-05-29T12:08:10.488Z,48.03
2019-05-29T12:10:38.811Z,46.60
2019-05-29T12:13:07.150Z,42.88
2019-05-29T12:15:35.579Z,44.23
2019-05-29T12:18:21.849Z,48.45
2019-05-29T12:20:34.247Z,49.13
2019-05-29T12:23:25.764Z,48.78
2019-05-29T12:25:32.923Z,45.47
2019-05-29T12:28:01.422Z,47.27
2019-05-29T12:30:30.281Z,47.52
2019-05-29T12:32:59.221Z,45.59
2019-05-29T12:35:27.625Z,45.59
2019-05-29T12:37:57.287Z,48.00
2019-05-29T12:40:26.108Z,47.80
2019-05-29T12:42:55.649Z,47.46
2019-05-29T12:45:24.642Z,47.76
2019-05-29T12:47:54.224Z,47.08
2019-05-29T12:50:23.067Z,46.60
2019-05-29T12:52:51.401Z,46.76
2019-05-29T12:55:20.147Z,45.65
2019-05-29T12:57:48.485Z,47.00
2019-05-29T13:00:19.701Z,44.49
2019-05-29T13:02:47.986Z,45.29
2019-05-29T13:05:20.541Z,45.78
2019-05-29T13:07:46.768Z,45.92
2019-05-29T13:10:30.154Z,45.81
2019-05-29T13:12:46.606Z,45.50
2019-05-29T13:15:15.931Z,43.29
2019-05-29T13:17:44.588Z,43.88
2019-05-29T13:20:21.674Z,43.72
2019-05-29T13:22:44.669Z,40.70
2019-05-29T13:25:14.379Z,44.35
2019-05-29T13:27:42.681Z,43.90
2019-05-29T13:30:13.520Z,43.58
2019-05-29T13:32:42.245Z,42.91
2019-05-29T13:35:11.756Z,42.19
2019-05-29T13:37:40.447Z,40.26
2019-05-29T13:40:09.190Z,39.38
2019-05-29T13:42:37.591Z,39.43
2019-05-29T13:45:16.835Z,40.50
2019-05-29T13:47:38.056Z,40.63
2019-05-29T13:50:12.287Z,40.07
2019-05-29T13:52:39.887Z,42.30
2019-05-29T13:55:09.093Z,39.68
2019-05-29T13:57:39.875Z,40.50
2019-05-29T14:00:30.291Z,41.57
2019-05-29T14:02:41.859Z,40.25
2019-05-29T14:05:11.296Z,41.50
2019-05-29T14:07:39.587Z,43.00
2019-05-29T14:10:09.629Z,40.29
2019-05-29T14:12:38.530Z,40.21
2019-05-29T14:15:12.161Z,42.04
2019-05-29T14:17:40.865Z,44.98
2019-05-29T14:20:11.301Z,43.14
2019-05-29T14:22:39.618Z,43.26
2019-05-29T14:25:11.670Z,43.68
2019-05-29T14:27:40.604Z,45.55
2019-05-29T14:30:10.868Z,46.03
2019-05-29T14:32:39.521Z,43.41
2019-05-29T14:35:09.512Z,45.07
2019-05-29T14:37:38.984Z,41.95
2019-05-29T14:40:08.113Z,42.59
2019-05-29T14:42:37.432Z,44.31
2019-05-29T14:45:10.389Z,45.26
2019-05-29T14:47:39.001Z,41.94
2019-05-29T14:50:08.801Z,40.99
2019-05-29T14:52:37.252Z,41.55
2019-05-29T14:55:06.810Z,39.78
2019-05-29T14:57:35.145Z,42.17
2019-05-29T15:00:18.878Z,39.19
2019-05-29T15:02:38.687Z,39.51
2019-05-29T15:05:09.761Z,40.05
2019-05-29T15:07:38.868Z,41.63
2019-05-29T15:10:21.373Z,40.18
2019-05-29T15:12:39.617Z,39.22
2019-05-29T15:15:13.536Z,40.05
2019-05-29T15:17:44.644Z,40.27
2019-05-29T15:20:17.090Z,38.64
2019-05-29T15:22:45.528Z,38.59
2019-05-29T15:25:23.727Z,39.44
2019-05-29T15:27:45.590Z,37.83
2019-05-29T15:30:22.082Z,41.25
2019-05-29T15:32:44.921Z,39.98
2019-05-29T15:35:16.629Z,38.71
2019-05-29T15:37:44.569Z,39.22
2019-05-29T15:40:14.771Z,36.29
2019-05-29T15:42:44.132Z,40.74
2019-05-29T15:45:14.129Z,42.52
2019-05-29T15:47:42.933Z,38.87
2019-05-29T15:50:13.675Z,44.06
2019-05-29T15:52:42.561Z,46.18
2019-05-29T15:55:27.025Z,44.58
2019-05-29T15:57:42.704Z,42.81
2019-05-29T16:00:13.724Z,44.51
2019-05-29T16:02:42.556Z,44.78
2019-05-29T16:05:12.957Z,43.53
2019-05-29T16:07:41.652Z,46.22
2019-05-29T16:10:14.671Z,44.55
2019-05-29T16:12:41.595Z,42.16
2019-05-29T16:15:11.296Z,45.72
2019-05-29T16:17:40.042Z,43.84
2019-05-29T16:20:10.533Z,45.52
2019-05-29T16:22:39.020Z,45.62
2019-05-29T16:25:08.453Z,45.61
2019-05-29T16:27:37.120Z,45.04
2019-05-29T16:30:08.555Z,44.66
2019-05-29T16:32:36.954Z,44.70
2019-05-29T16:35:07.167Z,43.97
2019-05-29T16:37:35.856Z,45.54
2019-05-29T16:40:14.202Z,43.80
2019-05-29T16:42:42.729Z,45.09
2019-05-29T16:45:12.269Z,45.51
2019-05-29T16:47:41.064Z,45.54
2019-05-29T16:50:10.456Z,45.85
2019-05-29T16:52:39.271Z,44.89
2019-05-29T16:55:08.346Z,43.57
2019-05-29T16:57:36.737Z,44.78
2019-05-29T17:00:08.790Z,45.21
2019-05-29T17:02:37.917Z,43.59
2019-05-29T17:05:07.153Z,44.12
2019-05-29T17:07:35.499Z,44.97
2019-05-29T17:10:07.865Z,44.20
2019-05-29T17:12:36.180Z,44.57
2019-05-29T17:15:12.900Z,42.95
2019-05-29T17:17:41.619Z,44.47
2019-05-29T17:20:10.638Z,43.77
2019-05-29T17:22:39.038Z,44.05
2019-05-29T17:25:07.975Z,44.61
2019-05-29T17:27:36.682Z,46.50
2019-05-29T17:30:07.488Z,46.34
2019-05-29T17:32:36.197Z,46.39
2019-05-29T17:35:08.913Z,45.79
2019-05-29T17:37:37.942Z,45.71
2019-05-29T17:40:08.053Z,44.44
2019-05-29T17:42:36.496Z,46.32
2019-05-29T17:45:08.353Z,48.22
2019-05-29T17:47:37.088Z,47.75
2019-05-29T17:50:07.260Z,46.25
2019-05-29T17:52:35.845Z,48.16
2019-05-29T17:55:06.188Z,48.79
2019-05-29T17:57:34.600Z,47.73
2019-05-29T18:00:04.825Z,46.83
2019-05-29T18:02:33.154Z,46.07
2019-05-29T18:05:01.480Z,48.70
2019-05-29T18:07:30.195Z,48.84
2019-05-29T18:09:58.508Z,46.89
2019-05-29T18:12:27.186Z,45.96
2019-05-29T18:14:56.111Z,46.89
2019-05-29T18:17:25.485Z,47.38
2019-05-29T18:19:54.018Z,44.69
2019-05-29T18:22:23.603Z,45.90
2019-05-29T18:24:52.363Z,43.91
2019-05-29T18:27:21.817Z,47.21
2019-05-29T18:29:50.352Z,45.25
2019-05-29T18:32:18.652Z,49.17
2019-05-29T18:34:47.136Z,45.82
2019-05-29T18:37:15.486Z,45.99
2019-05-29T18:39:44.216Z,46.87
2019-05-29T18:42:13.214Z,48.81
2019-05-29T18:44:41.645Z,48.66
2019-05-29T18:47:10.027Z,46.49
2019-05-29T18:49:38.859Z,45.13
2019-05-29T18:52:07.476Z,46.02
2019-05-29T18:54:35.961Z,50.59
2019-05-29T18:57:14.997Z,48.14
2019-05-29T18:59:34.827Z,48.13
2019-05-29T19:02:03.155Z,48.08
2019-05-29T19:04:32.032Z,50.87
2019-05-29T19:07:00.882Z,50.24
2019-05-29T19:09:29.807Z,46.05
2019-05-29T19:11:58.415Z,44.46
2019-05-29T19:14:27.883Z,45.63
2019-05-29T19:16:56.712Z,46.13
2019-05-29T19:19:26.155Z,46.98
2019-05-29T19:21:54.617Z,50.36
2019-05-29T19:24:22.927Z,56.16
2019-05-29T19:26:51.564Z,54.43
2019-05-29T19:29:19.879Z,53.13
2019-05-29T19:31:49.265Z,52.88
2019-05-29T19:34:18.517Z,51.15
2019-05-29T19:36:47.733Z,53.10
2019-05-29T19:39:16.131Z,52.59
2019-05-29T19:41:44.914Z,53.80
2019-05-29T19:44:13.829Z,52.09
2019-05-29T19:46:53.551Z,50.06
2019-05-29T19:49:12.559Z,53.24
2019-05-29T19:51:40.863Z,51.06
2019-05-29T19:54:09.606Z,50.47
2019-05-29T19:56:38.301Z,50.64
2019-05-29T19:59:06.655Z,49.64
2019-05-29T20:01:39.004Z,48.63
2019-05-29T20:04:05.519Z,49.75
2019-05-29T20:06:35.351Z,49.83
2019-05-29T20:09:06.363Z,51.40
2019-05-29T20:11:35.608Z,48.65
2019-05-29T20:14:07.495Z,50.25
2019-05-29T20:16:34.412Z,48.42
2019-05-29T20:19:02.723Z,51.12
2019-05-29T20:21:32.645Z,51.51
2019-05-29T20:24:01.130Z,49.36
2019-05-29T20:26:30.678Z,48.70
2019-05-29T20:28:59.436Z,50.66
2019-05-29T20:31:28.730Z,50.03
2019-05-29T20:33:57.061Z,51.95
2019-05-29T20:36:25.365Z,50.80
2019-05-29T20:38:53.701Z,51.57
2019-05-29T20:41:22.389Z,51.46
2019-05-29T20:43:50.713Z,49.40
2019-05-29T20:46:19.368Z,51.22
2019-05-29T20:48:47.767Z,52.49
2019-05-29T20:51:16.133Z,52.14
2019-05-29T20:53:44.455Z,50.85
2019-05-29T20:56:13.172Z,50.01
2019-05-29T20:58:42.044Z,49.42
2019-05-29T21:01:10.492Z,47.67
2019-05-29T21:03:40.805Z,47.77
2019-05-29T21:06:09.193Z,48.01
2019-05-29T21:08:38.741Z,48.90
2019-05-29T21:11:07.657Z,50.53
2019-05-29T21:13:37.346Z,49.45
2019-05-29T21:16:06.573Z,50.92
2019-05-29T21:18:35.797Z,49.38
2019-05-29T21:21:04.410Z,49.83
2019-05-29T21:23:34.192Z,48.79
2019-05-29T21:26:02.546Z,51.46
2019-05-29T21:28:39.879Z,52.23
2019-05-29T21:31:01.059Z,52.50
2019-05-29T21:33:29.362Z,51.42
2019-05-29T21:35:57.772Z,49.81
2019-05-29T21:38:26.341Z,52.79
2019-05-29T21:40:54.921Z,51.56
2019-05-29T21:43:23.574Z,49.55
2019-05-29T21:45:51.870Z,49.38
2019-05-29T21:48:20.372Z,49.55
2019-05-29T21:50:48.676Z,51.30
2019-05-29T21:53:17.001Z,50.89
2019-05-29T21:55:45.656Z,51.45
2019-05-29T21:58:14.691Z,50.64
2019-05-29T22:00:45.856Z,48.50
2019-05-29T22:03:14.884Z,48.96
2019-05-29T22:05:43.180Z,47.89
2019-05-29T22:08:11.593Z,49.72
2019-05-29T22:10:39.964Z,46.58
2019-05-29T22:13:08.366Z,45.23
2019-05-29T22:15:36.762Z,46.43
2019-05-29T22:18:05.642Z,47.43
2019-05-29T22:20:34.033Z,48.71
2019-05-29T22:23:02.861Z,47.33
2019-05-29T22:25:34.375Z,44.96
2019-05-29T22:28:01.765Z,47.95
2019-05-29T22:30:30.376Z,49.57
2019-05-29T22:32:59.575Z,47.11
2019-05-29T22:35:28.035Z,42.38
2019-05-29T22:37:57.566Z,47.45
2019-05-29T22:40:26.392Z,48.87
2019-05-29T22:42:55.606Z,47.90
2019-05-29T22:45:24.034Z,50.63
2019-05-29T22:47:53.689Z,49.54
2019-05-29T22:50:22.315Z,48.20
2019-05-29T22:52:51.764Z,46.76
2019-05-29T22:55:20.374Z,49.12
2019-05-29T22:57:48.683Z,49.86
2019-05-29T23:00:18.289Z,54.33
2019-05-29T23:02:46.664Z,51.36
2019-05-29T23:05:15.127Z,53.04
2019-05-29T23:07:43.427Z,52.80
2019-05-29T23:10:12.288Z,54.30
2019-05-29T23:12:40.708Z,50.45
2019-05-29T23:15:10.091Z,52.38
2019-05-29T23:17:38.463Z,54.28
2019-05-29T23:20:09.589Z,55.48
2019-05-29T23:22:38.412Z,56.45
2019-05-29T23:25:08.145Z,59.87
2019-05-29T23:27:36.646Z,57.88
2019-05-29T23:30:07.044Z,56.33
2019-05-29T23:32:35.512Z,56.98
2019-05-29T23:35:05.965Z,56.60
2019-05-29T23:37:34.287Z,57.02
2019-05-29T23:40:03.506Z,54.27
2019-05-29T23:42:32.364Z,57.13
2019-05-29T23:45:01.547Z,59.48
2019-05-29T23:47:30.526Z,57.86
2019-05-29T23:49:59.731Z,55.65
2019-05-29T23:52:28.519Z,57.17
2019-05-29T23:54:57.947Z,55.39
2019-05-29T23:57:26.419Z,55.17
